Terminal Aerodrome Forecast
Issued by NWS

Home | Current Version | Previous Version | Text Only | Print | Product List | Glossary On
Versions: 1 2 3 4 5 6 7 8 9 10 11 12 13
000
FTUS45 KRIW 210500
TAFRKS
TAF
KRKS 210538Z 2106/2206 25015G23KT P6SM VCSH SCT015 BKN040
     FM210700 25020G28KT 3SM -SN BLSN SCT012 OVC025
     FM211700 25030G38KT 5SM -SN BLSN SCT015 OVC030
     FM220300 28024G32KT 2SM -SHSN SCT008 OVC014=

USA.gov is the U.S. government's official web portal to all federal, state and local government web resources and services.